createdAt,value
2017-09-20T00:00:10.714Z,13.7
2017-09-20T00:01:20.744Z,13.66
2017-09-20T00:02:31.090Z,13.68
2017-09-20T00:03:41.448Z,13.69
2017-09-20T00:04:51.458Z,13.72
2017-09-20T00:06:01.810Z,13.75
2017-09-20T00:07:11.847Z,13.69
2017-09-20T00:08:23.182Z,13.7
2017-09-20T00:09:33.527Z,13.69
2017-09-20T00:10:43.854Z,13.68
2017-09-20T00:11:54.186Z,13.7
2017-09-20T00:13:04.525Z,13.69
2017-09-20T00:14:14.559Z,13.75
2017-09-20T00:15:24.901Z,13.72
2017-09-20T00:16:34.943Z,13.72
2017-09-20T00:17:44.968Z,13.73
2017-09-20T00:18:55.301Z,13.62
2017-09-20T00:20:05.627Z,13.62
2017-09-20T00:21:15.960Z,13.75
2017-09-20T00:22:26.320Z,13.66
2017-09-20T00:23:36.652Z,13.63
2017-09-20T00:24:47.025Z,13.63
2017-09-20T00:25:57.365Z,13.58
2017-09-20T00:27:07.373Z,13.62
2017-09-20T00:28:17.719Z,13.66
2017-09-20T00:29:28.066Z,13.66
2017-09-20T00:30:38.412Z,13.72
2017-09-20T00:31:48.435Z,13.68
2017-09-20T00:33:02.452Z,13.66
2017-09-20T00:34:12.493Z,13.62
2017-09-20T00:35:22.828Z,13.58
2017-09-20T00:36:33.195Z,13.66
2017-09-20T00:37:43.568Z,13.63
2017-09-20T00:38:53.899Z,13.65
2017-09-20T00:40:05.556Z,13.73
2017-09-20T00:41:15.574Z,13.66
2017-09-20T00:42:25.910Z,13.65
2017-09-20T00:43:36.280Z,13.63
2017-09-20T00:44:46.631Z,13.63
2017-09-20T00:45:56.966Z,13.68
2017-09-20T00:47:06.985Z,13.65
2017-09-20T00:48:17.065Z,13.51
2017-09-20T00:49:27.393Z,13.68
2017-09-20T00:50:37.761Z,13.66
2017-09-20T00:51:48.150Z,13.65
2017-09-20T00:52:58.476Z,13.65
2017-09-20T00:54:08.824Z,13.57
2017-09-20T00:55:19.163Z,13.72
2017-09-20T00:56:29.196Z,13.58
2017-09-20T00:57:39.519Z,13.62
2017-09-20T00:58:49.913Z,13.65
2017-09-20T01:00:00.273Z,13.66
2017-09-20T01:01:10.621Z,13.58
2017-09-20T01:02:20.634Z,13.55
2017-09-20T01:03:30.979Z,13.6
2017-09-20T01:04:41.015Z,13.58
2017-09-20T01:05:51.085Z,13.58
2017-09-20T01:07:01.426Z,13.6
2017-09-20T01:08:11.451Z,13.54
2017-09-20T01:09:21.473Z,13.57
2017-09-20T01:10:31.798Z,13.68
2017-09-20T01:11:41.814Z,13.57
2017-09-20T01:12:52.152Z,13.62
2017-09-20T01:14:02.510Z,13.65
2017-09-20T01:15:12.845Z,13.63
2017-09-20T01:16:23.177Z,13.57
2017-09-20T01:17:33.510Z,13.57
2017-09-20T01:18:43.842Z,13.63
2017-09-20T01:19:53.877Z,13.57
2017-09-20T01:21:03.923Z,13.54
2017-09-20T01:22:14.328Z,13.57
2017-09-20T01:23:24.662Z,13.63
2017-09-20T01:24:34.350Z,13.65
2017-09-20T01:25:44.706Z,13.58
2017-09-20T01:26:55.099Z,13.6
2017-09-20T01:28:05.108Z,13.54
2017-09-20T01:29:17.446Z,13.55
2017-09-20T01:30:27.780Z,13.54
2017-09-20T01:31:38.110Z,13.65
2017-09-20T01:32:48.441Z,13.54
2017-09-20T01:33:58.788Z,13.68
2017-09-20T01:35:09.125Z,13.58
2017-09-20T01:36:19.127Z,13.66
2017-09-20T01:37:29.160Z,13.51
2017-09-20T01:38:39.490Z,13.6
2017-09-20T01:39:49.853Z,13.62
2017-09-20T01:41:00.196Z,13.66
2017-09-20T01:42:10.548Z,13.63
2017-09-20T01:43:20.893Z,13.6
2017-09-20T01:44:31.230Z,13.6
2017-09-20T01:45:41.567Z,13.62
2017-09-20T01:46:52.933Z,13.57
2017-09-20T01:48:02.958Z,13.6
2017-09-20T01:49:13.277Z,13.66
2017-09-20T01:50:23.620Z,13.58
2017-09-20T01:51:35.144Z,13.63
2017-09-20T01:52:45.475Z,13.58
2017-09-20T01:53:55.819Z,13.63
2017-09-20T01:55:06.206Z,13.6
2017-09-20T01:56:16.232Z,13.63
2017-09-20T01:57:26.250Z,13.65
2017-09-20T01:58:36.270Z,13.62
2017-09-20T01:59:46.596Z,13.5
2017-09-20T02:00:56.992Z,13.51
2017-09-20T02:02:07.015Z,13.5
2017-09-20T02:03:17.045Z,13.53
2017-09-20T02:04:27.390Z,13.57
2017-09-20T02:05:37.736Z,13.53
2017-09-20T02:06:47.743Z,13.5
2017-09-20T02:07:57.769Z,13.48
2017-09-20T02:09:08.129Z,13.53
2017-09-20T02:10:18.497Z,13.54
2017-09-20T02:11:28.842Z,13.5
2017-09-20T02:12:39.291Z,13.5
2017-09-20T02:13:49.381Z,13.5
2017-09-20T02:14:59.717Z,13.53
2017-09-20T02:16:10.057Z,13.5
2017-09-20T02:17:20.401Z,13.55
2017-09-20T02:18:30.796Z,13.51
2017-09-20T02:19:40.809Z,13.5
2017-09-20T02:20:51.159Z,13.5
2017-09-20T02:22:01.497Z,13.57
2017-09-20T02:23:11.522Z,13.53
2017-09-20T02:24:21.906Z,13.57
2017-09-20T02:25:32.236Z,13.36
2017-09-20T02:26:42.577Z,13.51
2017-09-20T02:27:52.914Z,13.53
2017-09-20T02:29:03.262Z,13.55
2017-09-20T02:30:13.593Z,13.44
2017-09-20T02:31:23.937Z,13.51
2017-09-20T02:32:33.953Z,13.44
2017-09-20T02:33:44.295Z,13.57
2017-09-20T02:34:54.662Z,13.44
2017-09-20T02:36:04.739Z,13.44
2017-09-20T02:37:15.079Z,13.53
2017-09-20T02:38:25.101Z,13.45
2017-09-20T02:39:35.437Z,13.51
2017-09-20T02:40:45.781Z,13.45
2017-09-20T02:41:56.164Z,13.54
2017-09-20T02:43:06.248Z,13.47
2017-09-20T02:44:16.589Z,13.5
2017-09-20T02:45:26.593Z,13.42
2017-09-20T02:46:36.610Z,13.45
2017-09-20T02:47:46.991Z,13.44
2017-09-20T02:48:57.323Z,13.44
2017-09-20T02:50:07.678Z,13.55
2017-09-20T02:51:17.703Z,13.5
2017-09-20T02:52:28.051Z,13.42
2017-09-20T02:53:37.760Z,13.51
2017-09-20T02:54:48.096Z,13.36
2017-09-20T02:55:58.446Z,13.36
2017-09-20T02:57:08.479Z,13.48
2017-09-20T02:58:18.817Z,13.45
2017-09-20T02:59:29.198Z,13.42
2017-09-20T03:00:38.899Z,13.51
2017-09-20T03:01:49.260Z,13.37
2017-09-20T03:34:00.210Z,11.49
2017-09-20T03:35:10.543Z,11.46
2017-09-20T03:36:20.876Z,11.45
2017-09-20T03:37:31.251Z,11.43
2017-09-20T03:38:41.595Z,11.64
2017-09-20T03:39:51.614Z,11.66
2017-09-20T03:41:01.959Z,11.76
2017-09-20T03:42:12.301Z,11.88
2017-09-20T03:43:22.364Z,12.05
2017-09-20T03:44:32.065Z,12.13
2017-09-20T03:45:42.416Z,12.22
2017-09-20T03:46:52.760Z,12.36
2017-09-20T03:48:02.461Z,12.45
2017-09-20T03:49:12.808Z,12.56
2017-09-20T03:50:23.154Z,12.61
2017-09-20T03:51:33.490Z,12.71
2017-09-20T03:52:43.838Z,12.76
2017-09-20T03:53:54.218Z,12.81
2017-09-20T03:55:04.232Z,12.91
2017-09-20T03:56:14.588Z,12.98
2017-09-20T03:57:24.954Z,13.02
2017-09-20T03:58:34.972Z,13.02
2017-09-20T03:59:45.320Z,13.07
2017-09-20T04:00:56.846Z,13.11
2017-09-20T04:02:07.194Z,13.1
2017-09-20T04:03:17.791Z,13.16
2017-09-20T04:04:28.130Z,13.16
2017-09-20T04:05:37.888Z,13.13
2017-09-20T04:06:47.912Z,13.17
2017-09-20T04:07:58.254Z,13.19
2017-09-20T04:09:08.632Z,13.2
2017-09-20T04:10:18.346Z,13.25
2017-09-20T04:11:28.677Z,13.21
2017-09-20T04:12:40.890Z,13.21
2017-09-20T04:13:51.236Z,13.31
2017-09-20T04:15:01.574Z,13.28
2017-09-20T04:16:11.923Z,13.29
2017-09-20T04:17:22.264Z,13.32
2017-09-20T04:18:32.591Z,13.31
2017-09-20T04:19:42.934Z,13.25
2017-09-20T04:20:52.956Z,13.28
2017-09-20T04:22:03.297Z,13.32
2017-09-20T04:23:13.703Z,13.25
2017-09-20T04:24:24.041Z,13.29
2017-09-20T04:25:34.058Z,13.27
2017-09-20T04:26:44.111Z,13.16
2017-09-20T04:27:54.449Z,13.21
2017-09-20T04:29:04.793Z,13.17
2017-09-20T04:30:15.135Z,13.14
2017-09-20T04:31:25.482Z,13.17
2017-09-20T04:32:35.848Z,13.14
2017-09-20T04:33:45.878Z,13.1
2017-09-20T04:34:56.271Z,13.13
2017-09-20T04:36:06.610Z,13.14
2017-09-20T04:37:16.962Z,13.14
2017-09-20T04:38:26.968Z,13.11
2017-09-20T04:39:36.993Z,13.1
2017-09-20T04:40:47.325Z,13.14
2017-09-20T04:41:57.044Z,13.11
2017-09-20T04:43:08.015Z,13.11
2017-09-20T04:44:18.367Z,13.13
2017-09-20T04:45:28.383Z,13.11
2017-09-20T04:46:38.735Z,13.13
2017-09-20T04:47:49.121Z,13.14
2017-09-20T04:48:59.449Z,13.1
2017-09-20T04:50:09.161Z,13.13
2017-09-20T04:51:19.495Z,13.14
2017-09-20T04:52:29.847Z,13.16
2017-09-20T04:53:40.170Z,13.13
2017-09-20T04:54:50.182Z,13.14
2017-09-20T04:56:00.524Z,13.14
2017-09-20T04:57:10.865Z,13.13
2017-09-20T04:58:20.901Z,13.17
2017-09-20T04:59:30.998Z,13.13
2017-09-20T05:00:41.344Z,13.14
2017-09-20T05:01:51.377Z,13.17
2017-09-20T05:03:01.738Z,13.1
2017-09-20T05:04:12.065Z,13.14
2017-09-20T05:05:22.096Z,13.14
2017-09-20T05:06:32.159Z,13.17
2017-09-20T05:07:42.188Z,13.17
2017-09-20T05:08:52.227Z,13.17
2017-09-20T05:10:02.592Z,13.19
2017-09-20T05:11:12.946Z,13.25
2017-09-20T05:12:23.292Z,13.21
2017-09-20T05:13:33.643Z,13.2
2017-09-20T05:14:43.692Z,13.25
2017-09-20T05:15:53.714Z,13.28
2017-09-20T05:17:04.115Z,13.24
2017-09-20T05:18:14.148Z,13.19
2017-09-20T05:19:24.477Z,13.25
2017-09-20T05:20:34.806Z,13.29
2017-09-20T05:21:45.143Z,13.39
2017-09-20T05:22:55.525Z,13.32
2017-09-20T05:24:05.862Z,13.47
2017-09-20T05:25:15.900Z,13.28
2017-09-20T05:26:26.290Z,13.32
2017-09-20T05:27:36.318Z,13.35
2017-09-20T05:28:46.394Z,13.36
2017-09-20T05:29:56.744Z,13.32
2017-09-20T05:31:07.091Z,13.35
2017-09-20T05:32:17.442Z,13.35
2017-09-20T05:33:27.794Z,13.35
2017-09-20T05:34:38.179Z,13.35
2017-09-20T05:35:48.502Z,13.36
2017-09-20T05:36:58.205Z,13.36
2017-09-20T05:38:08.227Z,13.45
2017-09-20T05:39:18.559Z,13.47
2017-09-20T05:40:28.884Z,13.4
2017-09-20T05:41:39.217Z,13.47
2017-09-20T05:42:49.243Z,13.53
2017-09-20T05:43:59.588Z,13.5
2017-09-20T05:45:09.298Z,13.51
2017-09-20T05:46:19.304Z,13.58
2017-09-20T05:47:29.645Z,13.57
2017-09-20T05:48:39.672Z,13.53
2017-09-20T05:49:50.019Z,13.63
2017-09-20T05:51:00.368Z,13.58
2017-09-20T05:52:11.153Z,13.6
2017-09-20T05:53:21.485Z,13.66
2017-09-20T05:54:31.521Z,13.54
2017-09-20T05:55:41.564Z,13.63
2017-09-20T05:56:51.895Z,13.68
2017-09-20T05:58:02.222Z,13.66
2017-09-20T05:59:12.246Z,13.58
2017-09-20T06:00:21.941Z,13.65
2017-09-20T06:01:31.959Z,13.63
2017-09-20T06:02:42.330Z,13.66
2017-09-20T06:03:52.661Z,13.55
2017-09-20T06:05:02.673Z,13.62
2017-09-20T06:06:12.687Z,13.57
2017-09-20T06:07:23.023Z,13.63
2017-09-20T06:08:33.389Z,13.62
2017-09-20T06:09:42.785Z,13.55
2017-09-20T06:10:53.129Z,13.54
2017-09-20T06:12:03.468Z,13.58
2017-09-20T06:13:13.922Z,13.62
2017-09-20T06:14:24.247Z,13.65
2017-09-20T06:15:34.270Z,13.63
2017-09-20T06:16:44.616Z,13.6
2017-09-20T06:17:54.652Z,13.6
2017-09-20T06:19:04.368Z,13.63
2017-09-20T06:20:14.737Z,13.69
2017-09-20T06:21:24.774Z,13.69
2017-09-20T06:22:35.115Z,13.72
2017-09-20T06:23:45.448Z,13.83
2017-09-20T06:24:55.792Z,13.87
2017-09-20T06:26:06.721Z,13.78
2017-09-20T06:27:17.050Z,13.88
2017-09-20T06:28:27.409Z,13.94
2017-09-20T06:29:37.750Z,14.02
2017-09-20T06:30:48.102Z,13.99
2017-09-20T06:31:58.439Z,14.08
2017-09-20T06:33:08.219Z,14.13
2017-09-20T06:34:18.561Z,14.15
2017-09-20T06:35:28.913Z,14.13
2017-09-20T06:36:38.940Z,14.15
2017-09-20T06:37:49.292Z,14.19
2017-09-20T06:38:59.660Z,14.19
2017-09-20T06:40:10.016Z,14.2
2017-09-20T06:41:20.380Z,14.13
2017-09-20T06:42:30.404Z,14.24
2017-09-20T06:43:40.427Z,14.27
2017-09-20T06:44:50.770Z,14.31
2017-09-20T06:46:01.109Z,14.27
2017-09-20T06:47:11.478Z,14.42
2017-09-20T06:48:21.494Z,14.41
2017-09-20T06:49:31.866Z,14.42
2017-09-20T06:50:42.200Z,14.51
2017-09-20T06:51:52.543Z,14.49
2017-09-20T06:53:04.011Z,14.49
2017-09-20T06:54:15.156Z,14.45
2017-09-20T06:55:25.984Z,14.49
2017-09-20T06:56:37.175Z,14.48
2017-09-20T06:57:47.234Z,14.56
2017-09-20T06:58:57.238Z,14.52
2017-09-20T07:00:07.269Z,14.67
2017-09-20T07:01:17.279Z,14.59
2017-09-20T07:02:27.608Z,14.6
2017-09-20T07:03:37.941Z,14.7
2017-09-20T07:04:48.306Z,14.77
2017-09-20T07:05:58.321Z,14.82
2017-09-20T07:07:08.676Z,14.87
2017-09-20T07:08:19.017Z,14.89
2017-09-20T07:09:29.354Z,14.86
2017-09-20T07:10:39.391Z,14.98
2017-09-20T07:11:52.337Z,14.94
2017-09-20T07:13:03.926Z,15.04
2017-09-20T07:14:14.272Z,15.08
2017-09-20T07:15:24.314Z,15
2017-09-20T07:16:34.335Z,15.07
2017-09-20T07:17:44.684Z,15.12
2017-09-20T07:18:55.048Z,15.08
2017-09-20T07:20:05.376Z,15.12
2017-09-20T07:21:15.780Z,15.12
2017-09-20T07:22:26.121Z,15.12
2017-09-20T07:23:36.447Z,15.19
2017-09-20T07:24:46.795Z,15.18
2017-09-20T07:25:56.830Z,15.2
2017-09-20T07:27:07.172Z,15.15
2017-09-20T07:28:17.514Z,15.27
2017-09-20T07:29:27.850Z,15.27
2017-09-20T07:30:38.183Z,15.25
2017-09-20T07:31:48.520Z,15.26
2017-09-20T07:32:58.870Z,15.3
2017-09-20T07:34:09.202Z,15.3
2017-09-20T07:35:19.214Z,15.3
2017-09-20T07:36:29.551Z,15.27
2017-09-20T07:37:39.907Z,15.3
2017-09-20T07:38:50.249Z,15.23
2017-09-20T07:40:00.580Z,15.31
2017-09-20T07:41:10.917Z,15.4
2017-09-20T07:42:21.244Z,15.37
2017-09-20T07:43:31.580Z,15.47
2017-09-20T07:44:41.938Z,15.34
2017-09-20T07:45:52.274Z,15.43
2017-09-20T07:47:02.613Z,15.45
2017-09-20T07:48:12.953Z,15.53
2017-09-20T07:49:22.970Z,15.53
2017-09-20T07:50:32.997Z,15.49
2017-09-20T07:51:43.020Z,15.45
2017-09-20T07:52:53.355Z,15.52
2017-09-20T07:54:03.374Z,15.43
2017-09-20T07:55:13.724Z,15.51
2017-09-20T07:56:24.050Z,15.45
2017-09-20T07:57:34.063Z,15.45
2017-09-20T07:58:44.401Z,15.45
2017-09-20T07:59:54.743Z,15.51
2017-09-20T08:01:05.079Z,15.41
2017-09-20T08:02:15.099Z,15.44
2017-09-20T08:03:25.436Z,15.43
2017-09-20T08:04:35.453Z,15.38
2017-09-20T08:05:45.455Z,15.26
2017-09-20T08:06:55.778Z,15.34
2017-09-20T08:08:05.840Z,15.37
2017-09-20T08:09:16.172Z,15.33
2017-09-20T08:10:29.392Z,15.44
2017-09-20T08:11:39.409Z,15.45
2017-09-20T08:12:49.726Z,15.47
2017-09-20T08:13:59.481Z,15.47
2017-09-20T08:15:09.823Z,15.53
2017-09-20T08:16:20.157Z,15.6
2017-09-20T08:17:30.489Z,15.67
2017-09-20T08:18:40.833Z,15.63
2017-09-20T08:19:50.876Z,15.68
2017-09-20T08:21:00.893Z,15.67
2017-09-20T08:22:10.907Z,15.74
2017-09-20T08:23:23.426Z,15.67
2017-09-20T08:24:33.438Z,15.86
2017-09-20T08:25:43.798Z,15.8
2017-09-20T08:26:53.807Z,15.8
2017-09-20T08:28:06.076Z,15.77
2017-09-20T08:29:17.074Z,15.89
2017-09-20T08:30:27.432Z,15.89
2017-09-20T08:31:37.611Z,15.83
2017-09-20T08:32:47.970Z,15.91
2017-09-20T08:33:58.330Z,15.83
2017-09-20T08:35:08.363Z,15.84
2017-09-20T08:36:18.709Z,15.74
2017-09-20T08:37:29.053Z,15.74
2017-09-20T08:38:39.400Z,15.8
2017-09-20T08:39:49.126Z,15.83
2017-09-20T08:40:59.496Z,15.86
2017-09-20T08:42:11.917Z,15.91
2017-09-20T08:43:22.285Z,15.89
2017-09-20T08:44:33.818Z,15.89
2017-09-20T08:45:44.218Z,15.81
2017-09-20T08:46:54.592Z,15.81
2017-09-20T08:48:04.935Z,15.91
2017-09-20T08:49:15.349Z,15.92
2017-09-20T08:50:25.733Z,15.81
2017-09-20T08:51:36.107Z,15.84
2017-09-20T08:52:46.158Z,15.88
2017-09-20T08:53:58.998Z,15.95
2017-09-20T08:55:09.415Z,15.92
2017-09-20T08:56:19.461Z,15.92
2017-09-20T08:57:29.846Z,15.92
2017-09-20T08:58:39.866Z,15.89
2017-09-20T08:59:50.256Z,15.86
2017-09-20T09:01:00.610Z,15.81
2017-09-20T09:02:10.980Z,15.83
2017-09-20T09:03:21.018Z,15.83
2017-09-20T09:04:31.409Z,15.89
2017-09-20T09:05:41.782Z,15.81
2017-09-20T09:06:52.267Z,15.81
2017-09-20T09:08:02.634Z,15.83
2017-09-20T09:09:13.019Z,15.75
2017-09-20T09:10:23.645Z,15.78
2017-09-20T09:11:33.706Z,15.81
2017-09-20T09:12:44.060Z,15.89
2017-09-20T09:13:54.444Z,15.91
2017-09-20T09:15:05.827Z,15.91
2017-09-20T09:16:16.205Z,15.93
2017-09-20T09:17:26.261Z,15.95
2017-09-20T09:18:36.367Z,15.96
2017-09-20T09:19:46.737Z,15.98
2017-09-20T09:20:57.120Z,15.93
2017-09-20T09:22:07.490Z,15.93
2017-09-20T09:23:17.831Z,15.91
2017-09-20T09:24:27.958Z,16
2017-09-20T09:25:41.340Z,16.02
2017-09-20T09:26:51.869Z,15.99
2017-09-20T09:28:02.232Z,16.07
2017-09-20T09:29:12.274Z,16.08
2017-09-20T09:30:22.371Z,16.16
2017-09-20T09:31:32.737Z,16.11
2017-09-20T09:32:43.096Z,16.17
2017-09-20T09:33:53.476Z,16.25
2017-09-20T09:35:06.583Z,16.25
2017-09-20T09:36:16.993Z,16.22
2017-09-20T09:37:29.460Z,16.33
2017-09-20T09:38:39.824Z,16.39
2017-09-20T09:39:49.558Z,16.4
2017-09-20T09:40:59.919Z,16.44
2017-09-20T09:42:13.081Z,16.44
2017-09-20T09:43:23.455Z,16.47
2017-09-20T09:44:33.810Z,16.42
2017-09-20T09:45:45.058Z,16.44
2017-09-20T09:46:55.432Z,16.36
2017-09-20T09:48:05.466Z,16.33
2017-09-20T09:49:15.854Z,16.26
2017-09-20T09:50:26.197Z,16.22
2017-09-20T09:51:36.553Z,16.26
2017-09-20T09:52:46.932Z,16.33
2017-09-20T09:53:58.096Z,16.37
2017-09-20T09:55:08.481Z,16.45
2017-09-20T09:56:18.854Z,16.4
2017-09-20T09:57:29.227Z,16.47
2017-09-20T09:58:39.596Z,16.4
2017-09-20T09:59:49.875Z,16.57
2017-09-20T10:00:59.600Z,16.7
2017-09-20T10:02:09.974Z,16.85
2017-09-20T10:03:21.082Z,17.06
2017-09-20T10:04:31.138Z,17.06
2017-09-20T10:05:41.495Z,17.31
2017-09-20T10:06:51.848Z,17.4
2017-09-20T10:08:01.576Z,17.52
2017-09-20T10:09:11.958Z,17.62
2017-09-20T10:10:22.557Z,17.84
2017-09-20T10:11:32.294Z,18.03
2017-09-20T10:12:42.704Z,18.08
2017-09-20T10:13:55.602Z,18.1
2017-09-20T10:15:05.644Z,18.08
2017-09-20T10:16:16.017Z,18.08
2017-09-20T10:17:26.412Z,18.19
2017-09-20T10:18:36.847Z,18.13
2017-09-20T10:19:46.912Z,18.06
2017-09-20T10:20:57.294Z,17.98
2017-09-20T10:22:07.794Z,18.02
2017-09-20T10:23:18.194Z,18.05
2017-09-20T10:24:28.615Z,18.11
2017-09-20T10:25:39.207Z,18.17
2017-09-20T10:26:49.584Z,18.14
2017-09-20T10:27:59.940Z,18.17
2017-09-20T10:29:10.329Z,18.31
2017-09-20T10:30:20.112Z,18.57
2017-09-20T10:31:30.485Z,18.65
2017-09-20T10:32:41.098Z,18.84
2017-09-20T10:33:51.171Z,19.09
2017-09-20T10:35:01.536Z,19.23
2017-09-20T10:36:11.964Z,19.3
2017-09-20T10:37:22.343Z,19.47
2017-09-20T10:38:32.700Z,19.65
2017-09-20T10:39:43.082Z,19.78
2017-09-20T10:40:53.494Z,19.87
2017-09-20T10:42:03.981Z,20.01
2017-09-20T10:43:14.354Z,20.08
2017-09-20T10:44:24.401Z,20.04
2017-09-20T10:45:34.786Z,20.02
2017-09-20T10:46:45.174Z,19.86
2017-09-20T10:47:55.600Z,19.67
2017-09-20T10:49:06.100Z,19.46
2017-09-20T10:50:16.134Z,19.35
2017-09-20T10:51:26.485Z,19.15
2017-09-20T10:52:36.845Z,19
2017-09-20T10:53:46.886Z,18.89
2017-09-20T10:54:56.924Z,18.71
2017-09-20T10:56:07.289Z,18.56
2017-09-20T10:57:17.663Z,18.45
2017-09-20T10:58:28.015Z,18.47
2017-09-20T10:59:40.584Z,18.42
2017-09-20T11:00:50.953Z,18.29
2017-09-20T11:02:00.706Z,18.31
2017-09-20T11:03:14.365Z,18.32
2017-09-20T11:04:24.420Z,18.14
2017-09-20T11:05:34.868Z,18.17
2017-09-20T11:06:44.929Z,18.13
2017-09-20T11:07:55.281Z,18.31
2017-09-20T11:09:05.652Z,18.23
2017-09-20T11:10:16.029Z,18.13
2017-09-20T11:11:26.097Z,18.16
2017-09-20T11:12:37.809Z,18.13
2017-09-20T11:13:48.187Z,18.21
2017-09-20T11:14:58.578Z,18.17
2017-09-20T11:16:08.962Z,18.32
2017-09-20T11:17:19.048Z,18.16
2017-09-20T11:18:29.423Z,18.19
2017-09-20T11:19:39.496Z,18.21
2017-09-20T11:20:49.205Z,18.11
2017-09-20T11:21:59.620Z,18.19
2017-09-20T11:23:12.955Z,18.14
2017-09-20T11:24:26.651Z,18.16
2017-09-20T11:25:37.071Z,18.16
2017-09-20T11:26:47.449Z,18.27
2017-09-20T11:27:57.790Z,18.21
2017-09-20T11:29:08.153Z,18.29
2017-09-20T11:30:18.524Z,18.49
2017-09-20T11:31:28.907Z,18.45
2017-09-20T11:32:39.279Z,18.49
2017-09-20T11:33:49.337Z,18.59
2017-09-20T11:34:59.383Z,18.57
2017-09-20T11:36:09.769Z,18.65
2017-09-20T11:37:22.551Z,18.74
2017-09-20T11:38:32.595Z,18.78
2017-09-20T11:39:42.963Z,18.82
2017-09-20T11:40:53.404Z,18.81
2017-09-20T11:42:03.755Z,18.87
2017-09-20T11:43:13.824Z,18.82
2017-09-20T11:44:24.193Z,18.97
2017-09-20T11:45:34.268Z,18.97
2017-09-20T11:46:44.053Z,19.09
2017-09-20T11:47:54.419Z,19.19
2017-09-20T11:49:04.799Z,19.35
2017-09-20T11:50:15.174Z,19.46
2017-09-20T11:51:25.213Z,19.55
2017-09-20T11:52:35.582Z,19.68
2017-09-20T11:53:45.652Z,19.68
2017-09-20T11:54:56.041Z,19.74
2017-09-20T11:56:06.090Z,19.64
2017-09-20T11:57:16.484Z,19.68
2017-09-20T11:58:26.549Z,19.75
2017-09-20T11:59:36.939Z,19.8
2017-09-20T12:00:47.879Z,19.87
2017-09-20T12:01:58.246Z,19.93
2017-09-20T12:03:07.986Z,19.87
2017-09-20T12:04:18.386Z,19.85
2017-09-20T12:05:28.748Z,19.85
2017-09-20T12:06:39.103Z,19.75
2017-09-20T12:07:49.480Z,19.65
2017-09-20T12:08:59.526Z,19.52
2017-09-20T12:10:11.690Z,19.47
2017-09-20T12:11:21.411Z,19.37
2017-09-20T12:12:31.757Z,19.32
2017-09-20T12:13:41.803Z,19.35
2017-09-20T12:14:52.172Z,19.25
2017-09-20T12:16:02.593Z,19.27
2017-09-20T12:17:12.941Z,19.25
2017-09-20T12:18:23.277Z,19.2
2017-09-20T12:19:33.628Z,19.23
2017-09-20T12:20:43.988Z,19.28
2017-09-20T12:21:54.339Z,19.24
2017-09-20T12:23:04.698Z,19.31
2017-09-20T12:24:17.351Z,19.37
2017-09-20T12:25:29.927Z,19.47
2017-09-20T12:26:40.019Z,19.46
2017-09-20T12:27:50.364Z,19.35
2017-09-20T12:29:00.738Z,19.32
2017-09-20T12:30:11.109Z,19.31
2017-09-20T12:31:21.149Z,19.27
2017-09-20T12:32:31.552Z,19.2
2017-09-20T12:33:41.954Z,19.19
2017-09-20T12:34:52.306Z,19.06
2017-09-20T12:36:02.676Z,19.06
2017-09-20T12:37:12.701Z,19.06
2017-09-20T12:38:23.092Z,18.96
2017-09-20T12:39:33.146Z,18.91
2017-09-20T12:40:43.494Z,18.91
2017-09-20T12:41:53.851Z,18.86
2017-09-20T12:43:04.194Z,18.74
2017-09-20T12:44:14.582Z,18.71
2017-09-20T12:45:24.928Z,18.68
2017-09-20T12:46:35.350Z,18.56
2017-09-20T12:47:45.709Z,18.5
2017-09-20T12:48:56.065Z,18.49
2017-09-20T12:50:07.666Z,18.45
2017-09-20T12:51:18.072Z,18.39
2017-09-20T12:52:28.431Z,18.45
2017-09-20T12:53:38.786Z,18.44
2017-09-20T12:54:49.133Z,18.47
2017-09-20T12:55:59.520Z,18.5
2017-09-20T12:57:09.546Z,18.57
2017-09-20T12:58:19.889Z,18.59
2017-09-20T12:59:29.590Z,18.59
2017-09-20T13:00:39.951Z,18.63
2017-09-20T13:01:50.010Z,18.59
2017-09-20T13:03:00.363Z,18.47
2017-09-20T13:04:10.397Z,18.57
2017-09-20T13:05:20.434Z,18.47
2017-09-20T13:06:30.802Z,18.45
2017-09-20T13:07:40.905Z,18.42
2017-09-20T13:08:50.959Z,18.36
2017-09-20T13:10:01.306Z,18.32
2017-09-20T13:11:11.673Z,18.24
2017-09-20T13:12:21.727Z,18.17
2017-09-20T13:13:32.132Z,18.26
2017-09-20T13:14:42.173Z,18.16
2017-09-20T13:15:52.524Z,18.2
2017-09-20T13:17:02.855Z,18.13
2017-09-20T13:18:12.920Z,18.11
2017-09-20T13:19:23.333Z,18.08
2017-09-20T13:20:33.703Z,18.02
2017-09-20T13:21:44.084Z,17.95
2017-09-20T13:22:54.159Z,18.01
2017-09-20T13:24:04.523Z,17.99
2017-09-20T13:25:14.898Z,17.83
2017-09-20T13:26:24.938Z,17.84
2017-09-20T13:27:35.297Z,17.87
2017-09-20T13:28:45.655Z,17.84
2017-09-20T13:29:56.013Z,17.8
2017-09-20T13:31:06.417Z,17.77
2017-09-20T13:32:16.785Z,17.73
2017-09-20T13:33:26.822Z,17.66
2017-09-20T13:34:37.164Z,17.71
2017-09-20T13:35:47.514Z,17.73
2017-09-20T13:36:57.915Z,17.73
2017-09-20T13:38:07.962Z,17.63
2017-09-20T13:39:18.002Z,17.6
2017-09-20T13:40:31.059Z,17.5
2017-09-20T13:41:41.436Z,17.58
2017-09-20T13:42:51.845Z,17.52
2017-09-20T13:44:01.587Z,17.57
2017-09-20T13:45:11.652Z,17.58
2017-09-20T13:46:21.322Z,17.57
2017-09-20T13:47:31.699Z,17.47
2017-09-20T13:48:42.056Z,17.47
2017-09-20T13:49:52.095Z,17.43
2017-09-20T13:51:02.159Z,17.5
2017-09-20T13:52:11.557Z,17.46
2017-09-20T13:53:21.601Z,17.43
2017-09-20T13:54:31.966Z,17.4
2017-09-20T13:55:42.316Z,17.39
2017-09-20T13:56:52.673Z,17.43
2017-09-20T13:58:03.048Z,17.38
2017-09-20T13:59:13.127Z,17.36
2017-09-20T14:00:23.482Z,17.28
2017-09-20T14:01:33.820Z,17.39
2017-09-20T14:02:43.867Z,17.31
2017-09-20T14:03:54.217Z,17.36
2017-09-20T14:05:04.636Z,17.36
2017-09-20T14:06:14.984Z,17.31
2017-09-20T14:07:25.342Z,17.32
2017-09-20T14:08:35.391Z,17.31
2017-09-20T14:09:45.131Z,17.39
2017-09-20T14:10:55.484Z,17.36
2017-09-20T14:12:05.545Z,17.4
2017-09-20T14:13:15.913Z,17.46
2017-09-20T14:14:26.272Z,17.45
2017-09-20T14:15:39.016Z,17.42
2017-09-20T14:16:49.965Z,17.42
2017-09-20T14:17:59.992Z,17.46
2017-09-20T14:19:10.347Z,17.5
2017-09-20T14:20:20.713Z,17.58
2017-09-20T14:21:31.057Z,17.52
2017-09-20T14:22:41.112Z,17.54
2017-09-20T14:23:51.477Z,17.52
2017-09-20T14:25:01.508Z,17.5
2017-09-20T14:26:11.875Z,17.52
2017-09-20T14:27:22.231Z,17.39
2017-09-20T14:28:31.973Z,17.42
2017-09-20T14:29:42.327Z,17.5
2017-09-20T14:30:52.702Z,17.49
2017-09-20T14:32:03.056Z,17.49
2017-09-20T14:33:13.407Z,17.47
2017-09-20T14:34:23.810Z,17.45
2017-09-20T14:35:34.179Z,17.39
2017-09-20T14:36:44.532Z,17.45
2017-09-20T14:37:54.562Z,17.4
2017-09-20T14:39:04.918Z,17.43
2017-09-20T14:40:15.288Z,17.32
2017-09-20T14:41:25.638Z,17.42
2017-09-20T14:42:35.998Z,17.39
2017-09-20T14:43:46.346Z,17.39
2017-09-20T14:44:56.695Z,17.35
2017-09-20T14:46:07.045Z,17.31
2017-09-20T14:47:17.412Z,17.38
2017-09-20T14:48:27.452Z,17.35
2017-09-20T14:49:37.793Z,17.31
2017-09-20T14:50:47.842Z,17.31
2017-09-20T14:51:58.168Z,17.38
2017-09-20T14:53:08.517Z,17.38
2017-09-20T14:54:18.874Z,17.39
2017-09-20T14:55:29.225Z,17.43
2017-09-20T14:56:39.579Z,17.43
2017-09-20T14:57:49.975Z,17.4
2017-09-20T14:58:59.998Z,17.38
2017-09-20T15:00:10.367Z,17.42
2017-09-20T15:01:20.409Z,17.43
2017-09-20T15:02:30.811Z,17.43
2017-09-20T15:03:40.821Z,17.43
2017-09-20T15:04:51.241Z,17.39
2017-09-20T15:06:01.610Z,17.43
2017-09-20T15:07:11.987Z,17.45
2017-09-20T15:08:22.359Z,17.5
2017-09-20T15:09:32.705Z,17.47
2017-09-20T15:10:43.127Z,17.45
2017-09-20T15:11:53.504Z,17.46
2017-09-20T15:13:03.572Z,17.5
2017-09-20T15:14:13.926Z,17.49
2017-09-20T15:15:24.283Z,17.57
2017-09-20T15:16:34.637Z,17.47
2017-09-20T15:17:45.019Z,17.46
2017-09-20T15:18:55.383Z,17.52
2017-09-20T15:20:05.753Z,17.55
2017-09-20T15:21:16.124Z,17.6
2017-09-20T15:22:26.479Z,17.52
2017-09-20T15:23:36.527Z,17.52
2017-09-20T15:24:46.893Z,17.45
2017-09-20T15:25:56.943Z,17.47
2017-09-20T15:27:07.380Z,17.47
2017-09-20T15:28:17.110Z,17.42
2017-09-20T15:29:27.153Z,17.4
2017-09-20T15:30:37.533Z,17.38
2017-09-20T15:31:47.570Z,17.3
2017-09-20T15:32:57.929Z,17.35
2017-09-20T15:34:08.301Z,17.31
2017-09-20T15:35:18.340Z,17.21
2017-09-20T15:36:28.438Z,17.27
2017-09-20T15:37:38.798Z,17.36
2017-09-20T15:38:48.898Z,17.2
2017-09-20T15:39:59.265Z,17.21